Terminal Aerodrome Forecast
Issued by NWS Mt. Holly, NJ

Home | Current Version | Previous Version | Text Only | Print | Product List | Glossary On
Versions: 1 2 3 4 5 6 7 8 9 10 11 12 13 14 15 16 17 18 19 20 21
000
FTUS41 KPHI 010800 AAA
TAFRDG
TAF AMD
KRDG 010806Z 0108/0206 04003KT P6SM -RA OVC100
     FM010900 03003KT P6SM SCT015 OVC100
      TEMPO 0109/0113 BKN015
     FM011300 03005KT P6SM BKN015
     FM011700 01004KT P6SM SCT015 OVC040
     FM020000 09004KT P6SM BKN050
     FM020500 00000KT 5SM BR SCT050=

USA.gov is the U.S. government's official web portal to all federal, state and local government web resources and services.